sensor_id;sensor_type;location;lat;lon;timestamp;temperature;humidity
61255;DHT22;47128;47.530;8.584;2022-11-04T00:01:29;10.60;99.90
61255;DHT22;47128;47.530;8.584;2022-11-04T00:03:55;10.60;99.90
61255;DHT22;47128;47.530;8.584;2022-11-04T00:06:21;10.60;99.90
61255;DHT22;47128;47.530;8.584;2022-11-04T00:08:51;10.60;99.90
61255;DHT22;47128;47.530;8.584;2022-11-04T00:11:18;10.70;99.90
61255;DHT22;47128;47.530;8.584;2022-11-04T00:14:04;10.70;99.90
61255;DHT22;47128;47.530;8.584;2022-11-04T00:16:29;10.70;99.90
61255;DHT22;47128;47.530;8.584;2022-11-04T00:19:14;10.60;99.90
61255;DHT22;47128;47.530;8.584;2022-11-04T00:21:39;10.60;99.90
61255;DHT22;47128;47.530;8.584;2022-11-04T00:24:24;10.50;99.90
61255;DHT22;47128;47.530;8.584;2022-11-04T00:27:17;10.40;99.90
61255;DHT22;47128;47.530;8.584;2022-11-04T00:30:03;10.40;99.90
61255;DHT22;47128;47.530;8.584;2022-11-04T00:32:31;10.30;99.90
61255;DHT22;47128;47.530;8.584;2022-11-04T00:35:16;10.40;99.90
61255;DHT22;47128;47.530;8.584;2022-11-04T00:37:42;10.40;99.90
61255;DHT22;47128;47.530;8.584;2022-11-04T00:40:10;10.50;99.90
61255;DHT22;47128;47.530;8.584;2022-11-04T00:42:37;10.50;99.90
61255;DHT22;47128;47.530;8.584;2022-11-04T00:45:03;10.50;99.90
61255;DHT22;47128;47.530;8.584;2022-11-04T00:47:29;10.50;99.90
61255;DHT22;47128;47.530;8.584;2022-11-04T00:49:54;10.40;99.90
61255;DHT22;47128;47.530;8.584;2022-11-04T00:52:20;10.40;99.90
61255;DHT22;47128;47.530;8.584;2022-11-04T00:54:46;10.40;99.90
61255;DHT22;47128;47.530;8.584;2022-11-04T00:57:12;10.40;99.90
61255;DHT22;47128;47.530;8.584;2022-11-04T00:59:38;10.50;99.90
61255;DHT22;47128;47.530;8.584;2022-11-04T01:02:05;10.40;99.90
61255;DHT22;47128;47.530;8.584;2022-11-04T01:04:30;10.40;99.90
61255;DHT22;47128;47.530;8.584;2022-11-04T01:06:56;10.30;99.90
61255;DHT22;47128;47.530;8.584;2022-11-04T01:09:22;10.30;99.90
61255;DHT22;47128;47.530;8.584;2022-11-04T01:11:48;10.20;99.90
61255;DHT22;47128;47.530;8.584;2022-11-04T01:14:14;10.10;99.90
61255;DHT22;47128;47.530;8.584;2022-11-04T01:16:40;10.10;99.90
61255;DHT22;47128;47.530;8.584;2022-11-04T01:19:06;10.10;99.90
61255;DHT22;47128;47.530;8.584;2022-11-04T01:21:31;10.00;99.90
61255;DHT22;47128;47.530;8.584;2022-11-04T01:23:58;10.00;99.90
61255;DHT22;47128;47.530;8.584;2022-11-04T01:26:25;10.00;99.90
61255;DHT22;47128;47.530;8.584;2022-11-04T01:28:52;10.00;99.90
61255;DHT22;47128;47.530;8.584;2022-11-04T01:31:21;10.00;99.90
61255;DHT22;47128;47.530;8.584;2022-11-04T01:33:49;9.90;99.90
61255;DHT22;47128;47.530;8.584;2022-11-04T01:36:15;9.90;99.90
61255;DHT22;47128;47.530;8.584;2022-11-04T01:38:41;10.00;99.90
61255;DHT22;47128;47.530;8.584;2022-11-04T01:41:09;10.00;99.90
61255;DHT22;47128;47.530;8.584;2022-11-04T01:43:44;10.00;99.90
61255;DHT22;47128;47.530;8.584;2022-11-04T01:46:15;10.00;99.90
61255;DHT22;47128;47.530;8.584;2022-11-04T01:48:42;10.00;99.90
61255;DHT22;47128;47.530;8.584;2022-11-04T01:51:08;9.90;99.90
61255;DHT22;47128;47.530;8.584;2022-11-04T01:53:38;10.00;99.90
61255;DHT22;47128;47.530;8.584;2022-11-04T01:56:07;10.10;99.90
61255;DHT22;47128;47.530;8.584;2022-11-04T01:58:38;10.10;99.90
61255;DHT22;47128;47.530;8.584;2022-11-04T02:01:05;10.30;99.90
61255;DHT22;47128;47.530;8.584;2022-11-04T02:03:42;10.20;99.90
61255;DHT22;47128;47.530;8.584;2022-11-04T02:06:10;10.30;99.90
61255;DHT22;47128;47.530;8.584;2022-11-04T02:08:37;10.20;99.90
61255;DHT22;47128;47.530;8.584;2022-11-04T02:11:03;10.30;99.90
61255;DHT22;47128;47.530;8.584;2022-11-04T02:13:31;10.30;99.90
61255;DHT22;47128;47.530;8.584;2022-11-04T02:30:17;10.10;99.90
61255;DHT22;47128;47.530;8.584;2022-11-04T02:38:27;10.10;99.90
61255;DHT22;47128;47.530;8.584;2022-11-04T02:49:25;10.00;99.90
61255;DHT22;47128;47.530;8.584;2022-11-04T02:52:03;9.90;99.90
61255;DHT22;47128;47.530;8.584;2022-11-04T02:54:38;9.80;99.90
61255;DHT22;47128;47.530;8.584;2022-11-04T02:57:07;9.90;99.90
61255;DHT22;47128;47.530;8.584;2022-11-04T02:59:38;9.80;99.90
61255;DHT22;47128;47.530;8.584;2022-11-04T03:02:09;9.80;99.90
61255;DHT22;47128;47.530;8.584;2022-11-04T03:04:40;9.70;99.90
61255;DHT22;47128;47.530;8.584;2022-11-04T03:07:11;9.80;99.90
61255;DHT22;47128;47.530;8.584;2022-11-04T03:09:41;9.80;99.90
61255;DHT22;47128;47.530;8.584;2022-11-04T03:12:12;9.80;99.90
61255;DHT22;47128;47.530;8.584;2022-11-04T03:14:56;9.80;99.90
61255;DHT22;47128;47.530;8.584;2022-11-04T03:17:54;9.70;99.90
61255;DHT22;47128;47.530;8.584;2022-11-04T03:20:24;9.70;99.90
61255;DHT22;47128;47.530;8.584;2022-11-04T03:22:52;9.70;99.90
61255;DHT22;47128;47.530;8.584;2022-11-04T03:25:26;9.70;99.90
61255;DHT22;47128;47.530;8.584;2022-11-04T03:30:36;9.60;99.90
61255;DHT22;47128;47.530;8.584;2022-11-04T03:33:17;9.60;99.90
61255;DHT22;47128;47.530;8.584;2022-11-04T03:35:44;9.60;99.90
61255;DHT22;47128;47.530;8.584;2022-11-04T03:38:10;9.50;99.90
61255;DHT22;47128;47.530;8.584;2022-11-04T03:40:36;9.50;99.90
61255;DHT22;47128;47.530;8.584;2022-11-04T03:43:11;9.50;99.90
61255;DHT22;47128;47.530;8.584;2022-11-04T03:45:39;9.50;99.90
61255;DHT22;47128;47.530;8.584;2022-11-04T03:48:06;9.50;99.90
61255;DHT22;47128;47.530;8.584;2022-11-04T03:50:40;9.60;99.90
61255;DHT22;47128;47.530;8.584;2022-11-04T03:53:07;9.70;99.90
61255;DHT22;47128;47.530;8.584;2022-11-04T03:58:50;9.80;99.90
61255;DHT22;47128;47.530;8.584;2022-11-04T04:04:01;9.60;99.90
61255;DHT22;47128;47.530;8.584;2022-11-04T04:06:32;9.70;99.90
61255;DHT22;47128;47.530;8.584;2022-11-04T04:09:17;9.70;99.90
61255;DHT22;47128;47.530;8.584;2022-11-04T04:11:57;9.70;99.90
61255;DHT22;47128;47.530;8.584;2022-11-04T04:14:38;9.60;99.90
61255;DHT22;47128;47.530;8.584;2022-11-04T04:17:27;9.60;99.90
61255;DHT22;47128;47.530;8.584;2022-11-04T04:20:01;9.60;99.90
61255;DHT22;47128;47.530;8.584;2022-11-04T04:22:30;9.60;99.90
61255;DHT22;47128;47.530;8.584;2022-11-04T04:25:00;9.50;99.90
61255;DHT22;47128;47.530;8.584;2022-11-04T04:27:47;9.50;99.90
61255;DHT22;47128;47.530;8.584;2022-11-04T04:30:15;9.50;99.90
61255;DHT22;47128;47.530;8.584;2022-11-04T04:32:56;9.40;99.90
61255;DHT22;47128;47.530;8.584;2022-11-04T04:35:28;9.40;99.90
61255;DHT22;47128;47.530;8.584;2022-11-04T04:38:16;9.40;99.90
61255;DHT22;47128;47.530;8.584;2022-11-04T04:41:26;9.40;99.90
61255;DHT22;47128;47.530;8.584;2022-11-04T04:47:14;9.40;99.90
61255;DHT22;47128;47.530;8.584;2022-11-04T04:49:51;9.40;99.90
61255;DHT22;47128;47.530;8.584;2022-11-04T04:52:17;9.40;99.90
61255;DHT22;47128;47.530;8.584;2022-11-04T04:54:44;9.60;99.90
61255;DHT22;47128;47.530;8.584;2022-11-04T04:57:10;9.60;99.90
61255;DHT22;47128;47.530;8.584;2022-11-04T04:59:35;9.60;99.90
61255;DHT22;47128;47.530;8.584;2022-11-04T05:02:01;9.60;99.90
61255;DHT22;47128;47.530;8.584;2022-11-04T05:04:26;9.60;99.90
61255;DHT22;47128;47.530;8.584;2022-11-04T05:06:52;9.50;99.90
61255;DHT22;47128;47.530;8.584;2022-11-04T05:09:18;9.50;99.90
61255;DHT22;47128;47.530;8.584;2022-11-04T05:11:43;9.40;99.90
61255;DHT22;47128;47.530;8.584;2022-11-04T05:14:09;9.30;99.90
61255;DHT22;47128;47.530;8.584;2022-11-04T05:16:34;9.30;99.90
61255;DHT22;47128;47.530;8.584;2022-11-04T05:21:26;9.10;99.90
61255;DHT22;47128;47.530;8.584;2022-11-04T05:23:52;9.20;99.90
61255;DHT22;47128;47.530;8.584;2022-11-04T05:26:17;9.10;99.90
61255;DHT22;47128;47.530;8.584;2022-11-04T05:28:43;9.10;99.90
61255;DHT22;47128;47.530;8.584;2022-11-04T05:31:08;9.10;99.90
61255;DHT22;47128;47.530;8.584;2022-11-04T05:33:34;9.00;99.90
61255;DHT22;47128;47.530;8.584;2022-11-04T05:36:07;9.00;99.90
61255;DHT22;47128;47.530;8.584;2022-11-04T05:38:33;9.00;99.90
61255;DHT22;47128;47.530;8.584;2022-11-04T05:40:59;9.00;99.90
61255;DHT22;47128;47.530;8.584;2022-11-04T05:43:24;9.00;99.90
61255;DHT22;47128;47.530;8.584;2022-11-04T05:45:50;9.00;99.90
61255;DHT22;47128;47.530;8.584;2022-11-04T05:48:16;9.00;99.90
61255;DHT22;47128;47.530;8.584;2022-11-04T05:50:41;9.00;99.90
61255;DHT22;47128;47.530;8.584;2022-11-04T05:53:07;8.90;99.90
61255;DHT22;47128;47.530;8.584;2022-11-04T05:55:33;8.90;99.90
61255;DHT22;47128;47.530;8.584;2022-11-04T05:57:58;8.90;99.90
61255;DHT22;47128;47.530;8.584;2022-11-04T06:00:27;8.90;99.90
61255;DHT22;47128;47.530;8.584;2022-11-04T06:02:54;8.80;99.90
61255;DHT22;47128;47.530;8.584;2022-11-04T06:05:24;8.80;99.90
61255;DHT22;47128;47.530;8.584;2022-11-04T06:07:49;8.80;99.90
61255;DHT22;47128;47.530;8.584;2022-11-04T06:10:15;8.80;99.90
61255;DHT22;47128;47.530;8.584;2022-11-04T06:12:41;8.70;99.90
61255;DHT22;47128;47.530;8.584;2022-11-04T06:15:07;8.70;99.90
61255;DHT22;47128;47.530;8.584;2022-11-04T06:17:33;8.60;99.90
61255;DHT22;47128;47.530;8.584;2022-11-04T06:19:58;8.70;99.90
61255;DHT22;47128;47.530;8.584;2022-11-04T06:22:24;8.60;99.90
61255;DHT22;47128;47.530;8.584;2022-11-04T06:24:49;8.60;99.90
61255;DHT22;47128;47.530;8.584;2022-11-04T06:27:15;8.60;99.90
61255;DHT22;47128;47.530;8.584;2022-11-04T06:29:41;8.70;99.90
61255;DHT22;47128;47.530;8.584;2022-11-04T06:32:12;8.80;99.90
61255;DHT22;47128;47.530;8.584;2022-11-04T06:34:38;8.80;99.90
61255;DHT22;47128;47.530;8.584;2022-11-04T06:37:04;8.70;99.90
61255;DHT22;47128;47.530;8.584;2022-11-04T06:39:30;8.70;99.90
61255;DHT22;47128;47.530;8.584;2022-11-04T06:41:55;8.60;99.90
61255;DHT22;47128;47.530;8.584;2022-11-04T06:44:21;8.60;99.90
61255;DHT22;47128;47.530;8.584;2022-11-04T06:46:47;8.60;99.90
61255;DHT22;47128;47.530;8.584;2022-11-04T06:49:15;8.60;99.90
61255;DHT22;47128;47.530;8.584;2022-11-04T06:51:42;8.60;99.90
61255;DHT22;47128;47.530;8.584;2022-11-04T06:54:08;8.50;99.90
61255;DHT22;47128;47.530;8.584;2022-11-04T06:56:34;8.60;99.90
61255;DHT22;47128;47.530;8.584;2022-11-04T06:59:01;8.60;99.90
61255;DHT22;47128;47.530;8.584;2022-11-04T07:01:29;8.60;99.90
61255;DHT22;47128;47.530;8.584;2022-11-04T07:03:57;8.60;99.90
61255;DHT22;47128;47.530;8.584;2022-11-04T07:06:24;8.70;99.90
61255;DHT22;47128;47.530;8.584;2022-11-04T07:08:55;8.70;99.90
61255;DHT22;47128;47.530;8.584;2022-11-04T07:11:24;8.80;99.90
61255;DHT22;47128;47.530;8.584;2022-11-04T07:13:51;8.80;99.90
61255;DHT22;47128;47.530;8.584;2022-11-04T07:16:17;8.80;99.90
61255;DHT22;47128;47.530;8.584;2022-11-04T07:18:43;8.90;99.90
61255;DHT22;47128;47.530;8.584;2022-11-04T07:21:10;8.90;99.90
61255;DHT22;47128;47.530;8.584;2022-11-04T07:23:36;8.90;99.90
61255;DHT22;47128;47.530;8.584;2022-11-04T07:26:04;8.90;99.90
61255;DHT22;47128;47.530;8.584;2022-11-04T07:28:31;9.00;99.90
61255;DHT22;47128;47.530;8.584;2022-11-04T07:30:59;9.00;99.90
61255;DHT22;47128;47.530;8.584;2022-11-04T07:33:25;9.00;99.90
61255;DHT22;47128;47.530;8.584;2022-11-04T07:35:53;9.10;99.90
61255;DHT22;47128;47.530;8.584;2022-11-04T07:38:22;9.10;99.90
61255;DHT22;47128;47.530;8.584;2022-11-04T07:40:49;9.10;99.90
61255;DHT22;47128;47.530;8.584;2022-11-04T07:43:15;9.10;99.90
61255;DHT22;47128;47.530;8.584;2022-11-04T07:45:42;9.10;99.90
61255;DHT22;47128;47.530;8.584;2022-11-04T07:48:08;9.20;99.90
61255;DHT22;47128;47.530;8.584;2022-11-04T07:50:38;9.30;99.90
61255;DHT22;47128;47.530;8.584;2022-11-04T07:53:04;9.40;99.90
61255;DHT22;47128;47.530;8.584;2022-11-04T07:55:30;9.50;99.90
61255;DHT22;47128;47.530;8.584;2022-11-04T07:57:57;9.50;99.90
61255;DHT22;47128;47.530;8.584;2022-11-04T08:00:22;9.60;99.90
61255;DHT22;47128;47.530;8.584;2022-11-04T08:02:48;9.60;99.90
61255;DHT22;47128;47.530;8.584;2022-11-04T08:05:19;9.60;99.90
61255;DHT22;47128;47.530;8.584;2022-11-04T08:07:44;9.60;99.90
61255;DHT22;47128;47.530;8.584;2022-11-04T08:10:43;9.60;99.90
61255;DHT22;47128;47.530;8.584;2022-11-04T08:13:14;9.80;99.90
61255;DHT22;47128;47.530;8.584;2022-11-04T08:15:44;9.80;99.90
61255;DHT22;47128;47.530;8.584;2022-11-04T08:18:11;9.80;99.90
61255;DHT22;47128;47.530;8.584;2022-11-04T08:20:40;9.90;99.90
61255;DHT22;47128;47.530;8.584;2022-11-04T08:23:10;10.00;99.90
61255;DHT22;47128;47.530;8.584;2022-11-04T08:25:37;10.10;99.90
61255;DHT22;47128;47.530;8.584;2022-11-04T08:28:03;10.20;99.90
61255;DHT22;47128;47.530;8.584;2022-11-04T08:30:29;10.30;99.90
61255;DHT22;47128;47.530;8.584;2022-11-04T08:32:54;10.30;99.90
61255;DHT22;47128;47.530;8.584;2022-11-04T08:35:21;10.40;99.90
61255;DHT22;47128;47.530;8.584;2022-11-04T08:37:50;10.40;99.90
61255;DHT22;47128;47.530;8.584;2022-11-04T08:40:16;10.50;99.90
61255;DHT22;47128;47.530;8.584;2022-11-04T08:42:42;10.50;99.90
61255;DHT22;47128;47.530;8.584;2022-11-04T08:45:08;10.60;99.90
61255;DHT22;47128;47.530;8.584;2022-11-04T08:47:34;10.70;99.90
61255;DHT22;47128;47.530;8.584;2022-11-04T08:50:00;10.80;99.90
61255;DHT22;47128;47.530;8.584;2022-11-04T08:52:26;11.00;99.90
61255;DHT22;47128;47.530;8.584;2022-11-04T08:54:54;11.00;99.90
61255;DHT22;47128;47.530;8.584;2022-11-04T08:57:20;11.10;99.90
61255;DHT22;47128;47.530;8.584;2022-11-04T08:59:46;11.10;99.90
61255;DHT22;47128;47.530;8.584;2022-11-04T09:02:13;11.20;99.90
61255;DHT22;47128;47.530;8.584;2022-11-04T09:04:40;11.20;99.90
61255;DHT22;47128;47.530;8.584;2022-11-04T09:07:06;11.30;99.90
61255;DHT22;47128;47.530;8.584;2022-11-04T09:09:32;11.30;99.90
61255;DHT22;47128;47.530;8.584;2022-11-04T09:11:59;11.40;99.90
61255;DHT22;47128;47.530;8.584;2022-11-04T09:14:25;11.50;99.90
61255;DHT22;47128;47.530;8.584;2022-11-04T09:16:51;11.60;99.90
61255;DHT22;47128;47.530;8.584;2022-11-04T09:19:19;11.60;99.90
61255;DHT22;47128;47.530;8.584;2022-11-04T09:21:49;11.70;99.90
61255;DHT22;47128;47.530;8.584;2022-11-04T09:24:15;11.70;99.90
61255;DHT22;47128;47.530;8.584;2022-11-04T09:26:43;11.60;99.90
61255;DHT22;47128;47.530;8.584;2022-11-04T09:29:09;11.70;99.90
61255;DHT22;47128;47.530;8.584;2022-11-04T09:31:35;11.70;99.90
61255;DHT22;47128;47.530;8.584;2022-11-04T09:34:01;11.60;99.90
61255;DHT22;47128;47.530;8.584;2022-11-04T09:36:28;11.70;99.90
61255;DHT22;47128;47.530;8.584;2022-11-04T09:38:54;11.80;99.90
61255;DHT22;47128;47.530;8.584;2022-11-04T09:41:24;11.80;99.90
61255;DHT22;47128;47.530;8.584;2022-11-04T09:44:13;11.90;99.90
61255;DHT22;47128;47.530;8.584;2022-11-04T09:46:43;12.10;99.90
61255;DHT22;47128;47.530;8.584;2022-11-04T09:49:11;12.20;98.00
61255;DHT22;47128;47.530;8.584;2022-11-04T09:51:37;12.40;98.80
61255;DHT22;47128;47.530;8.584;2022-11-04T09:54:43;12.50;98.60
61255;DHT22;47128;47.530;8.584;2022-11-04T09:57:16;12.70;98.10
61255;DHT22;47128;47.530;8.584;2022-11-04T09:59:42;12.80;97.80
61255;DHT22;47128;47.530;8.584;2022-11-04T10:02:36;12.80;97.70
61255;DHT22;47128;47.530;8.584;2022-11-04T10:11:08;13.00;96.70
61255;DHT22;47128;47.530;8.584;2022-11-04T10:19:07;14.40;94.30
61255;DHT22;47128;47.530;8.584;2022-11-04T10:22:01;14.70;95.30
61255;DHT22;47128;47.530;8.584;2022-11-04T10:25:20;14.50;94.80
61255;DHT22;47128;47.530;8.584;2022-11-04T10:27:37;14.40;94.40
61255;DHT22;47128;47.530;8.584;2022-11-04T10:32:49;13.70;94.60
61255;DHT22;47128;47.530;8.584;2022-11-04T10:35:35;13.50;95.10
61255;DHT22;47128;47.530;8.584;2022-11-04T10:40:46;13.50;95.50
61255;DHT22;47128;47.530;8.584;2022-11-04T10:43:16;13.50;95.20
61255;DHT22;47128;47.530;8.584;2022-11-04T10:46:08;13.60;95.00
61255;DHT22;47128;47.530;8.584;2022-11-04T10:49:23;13.70;95.60
61255;DHT22;47128;47.530;8.584;2022-11-04T10:51:52;13.90;94.70
61255;DHT22;47128;47.530;8.584;2022-11-04T10:54:20;13.60;93.20
61255;DHT22;47128;47.530;8.584;2022-11-04T10:56:52;13.60;94.30
61255;DHT22;47128;47.530;8.584;2022-11-04T11:02:18;13.70;95.50
61255;DHT22;47128;47.530;8.584;2022-11-04T11:04:44;13.70;94.80
61255;DHT22;47128;47.530;8.584;2022-11-04T11:07:13;13.70;95.00
61255;DHT22;47128;47.530;8.584;2022-11-04T11:09:53;13.50;94.20
61255;DHT22;47128;47.530;8.584;2022-11-04T11:12:25;13.30;94.30
61255;DHT22;47128;47.530;8.584;2022-11-04T11:14:56;13.30;94.90
61255;DHT22;47128;47.530;8.584;2022-11-04T11:19:59;14.50;93.60
61255;DHT22;47128;47.530;8.584;2022-11-04T11:22:41;15.00;92.60
61255;DHT22;47128;47.530;8.584;2022-11-04T11:25:21;15.40;92.70
61255;DHT22;47128;47.530;8.584;2022-11-04T11:30:29;15.70;90.50
61255;DHT22;47128;47.530;8.584;2022-11-04T11:33:19;15.40;90.30
61255;DHT22;47128;47.530;8.584;2022-11-04T11:35:51;15.20;91.00
61255;DHT22;47128;47.530;8.584;2022-11-04T11:38:26;15.30;91.20
61255;DHT22;47128;47.530;8.584;2022-11-04T11:41:02;15.20;90.80
61255;DHT22;47128;47.530;8.584;2022-11-04T11:43:31;15.20;91.30
61255;DHT22;47128;47.530;8.584;2022-11-04T11:45:58;15.20;92.40
61255;DHT22;47128;47.530;8.584;2022-11-04T11:48:42;15.50;91.80
61255;DHT22;47128;47.530;8.584;2022-11-04T11:51:12;15.50;90.60
61255;DHT22;47128;47.530;8.584;2022-11-04T11:53:39;16.30;91.20
61255;DHT22;47128;47.530;8.584;2022-11-04T12:02:39;18.80;79.60
61255;DHT22;47128;47.530;8.584;2022-11-04T12:05:13;18.00;80.20
61255;DHT22;47128;47.530;8.584;2022-11-04T12:10:44;17.00;82.80
61255;DHT22;47128;47.530;8.584;2022-11-04T12:13:19;16.50;83.90
61255;DHT22;47128;47.530;8.584;2022-11-04T12:15:53;16.40;84.80
61255;DHT22;47128;47.530;8.584;2022-11-04T12:21:25;16.90;84.00
61255;DHT22;47128;47.530;8.584;2022-11-04T12:40:33;18.10;81.10
61255;DHT22;47128;47.530;8.584;2022-11-04T12:43:32;18.20;81.20
61255;DHT22;47128;47.530;8.584;2022-11-04T12:48:33;16.90;83.70
61255;DHT22;47128;47.530;8.584;2022-11-04T12:51:31;16.00;85.80
61255;DHT22;47128;47.530;8.584;2022-11-04T12:56:46;15.10;89.60
61255;DHT22;47128;47.530;8.584;2022-11-04T13:05:06;14.50;90.90
61255;DHT22;47128;47.530;8.584;2022-11-04T13:07:38;14.60;90.30
61255;DHT22;47128;47.530;8.584;2022-11-04T13:10:20;14.60;90.70
61255;DHT22;47128;47.530;8.584;2022-11-04T13:12:48;14.50;91.10
61255;DHT22;47128;47.530;8.584;2022-11-04T13:15:23;14.60;90.50
61255;DHT22;47128;47.530;8.584;2022-11-04T13:17:57;14.60;90.90
61255;DHT22;47128;47.530;8.584;2022-11-04T13:20:32;14.50;90.80
61255;DHT22;47128;47.530;8.584;2022-11-04T13:23:06;14.30;90.60
61255;DHT22;47128;47.530;8.584;2022-11-04T13:25:37;14.30;91.30
61255;DHT22;47128;47.530;8.584;2022-11-04T13:28:09;14.20;90.20
61255;DHT22;47128;47.530;8.584;2022-11-04T13:31:03;14.00;88.70
61255;DHT22;47128;47.530;8.584;2022-11-04T13:33:45;14.00;89.10
61255;DHT22;47128;47.530;8.584;2022-11-04T13:39:05;13.90;89.40
61255;DHT22;47128;47.530;8.584;2022-11-04T13:44:27;13.80;89.10
61255;DHT22;47128;47.530;8.584;2022-11-04T13:46:56;13.90;90.70
61255;DHT22;47128;47.530;8.584;2022-11-04T13:49:28;13.90;91.20
61255;DHT22;47128;47.530;8.584;2022-11-04T13:52:10;13.90;91.80
61255;DHT22;47128;47.530;8.584;2022-11-04T13:54:40;13.80;91.80
61255;DHT22;47128;47.530;8.584;2022-11-04T13:57:24;13.70;91.80
61255;DHT22;47128;47.530;8.584;2022-11-04T14:02:44;13.70;91.80
61255;DHT22;47128;47.530;8.584;2022-11-04T14:18:44;13.40;92.20
61255;DHT22;47128;47.530;8.584;2022-11-04T14:21:16;13.40;91.90
61255;DHT22;47128;47.530;8.584;2022-11-04T14:23:46;13.40;91.80
61255;DHT22;47128;47.530;8.584;2022-11-04T14:26:16;13.60;91.80
61255;DHT22;47128;47.530;8.584;2022-11-04T14:28:48;13.70;91.60
61255;DHT22;47128;47.530;8.584;2022-11-04T14:31:34;13.70;91.70
61255;DHT22;47128;47.530;8.584;2022-11-04T14:34:00;13.80;91.70
61255;DHT22;47128;47.530;8.584;2022-11-04T14:46:47;13.60;92.50
61255;DHT22;47128;47.530;8.584;2022-11-04T14:54:45;13.50;92.70
61255;DHT22;47128;47.530;8.584;2022-11-04T14:57:19;13.30;93.10
61255;DHT22;47128;47.530;8.584;2022-11-04T14:59:48;13.30;92.90
61255;DHT22;47128;47.530;8.584;2022-11-04T15:02:24;13.20;93.20
61255;DHT22;47128;47.530;8.584;2022-11-04T15:04:58;13.20;93.00
61255;DHT22;47128;47.530;8.584;2022-11-04T15:07:37;13.10;93.70
61255;DHT22;47128;47.530;8.584;2022-11-04T15:10:24;13.00;94.30
61255;DHT22;47128;47.530;8.584;2022-11-04T15:12:52;12.90;95.20
61255;DHT22;47128;47.530;8.584;2022-11-04T15:18:11;12.70;96.00
61255;DHT22;47128;47.530;8.584;2022-11-04T15:23:14;12.60;96.80
61255;DHT22;47128;47.530;8.584;2022-11-04T15:25:45;12.50;97.70
61255;DHT22;47128;47.530;8.584;2022-11-04T15:28:20;12.30;97.80
61255;DHT22;47128;47.530;8.584;2022-11-04T15:31:21;12.30;97.50
61255;DHT22;47128;47.530;8.584;2022-11-04T15:33:50;12.10;98.30
61255;DHT22;47128;47.530;8.584;2022-11-04T15:36:25;12.10;97.70
61255;DHT22;47128;47.530;8.584;2022-11-04T15:38:58;12.10;98.00
61255;DHT22;47128;47.530;8.584;2022-11-04T15:41:28;12.00;98.90
61255;DHT22;47128;47.530;8.584;2022-11-04T15:44:18;12.00;99.60
61255;DHT22;47128;47.530;8.584;2022-11-04T15:46:50;11.90;99.90
61255;DHT22;47128;47.530;8.584;2022-11-04T15:49:22;11.70;99.90
61255;DHT22;47128;47.530;8.584;2022-11-04T15:51:49;11.70;99.90
61255;DHT22;47128;47.530;8.584;2022-11-04T15:54:39;11.60;99.90
61255;DHT22;47128;47.530;8.584;2022-11-04T15:59:44;11.60;99.70
61255;DHT22;47128;47.530;8.584;2022-11-04T16:02:23;11.50;99.60
61255;DHT22;47128;47.530;8.584;2022-11-04T16:07:39;11.40;97.50
61255;DHT22;47128;47.530;8.584;2022-11-04T16:10:34;11.30;97.30
61255;DHT22;47128;47.530;8.584;2022-11-04T16:15:45;11.10;97.40
61255;DHT22;47128;47.530;8.584;2022-11-04T16:18:24;11.10;97.40
61255;DHT22;47128;47.530;8.584;2022-11-04T16:20:51;11.20;97.70
61255;DHT22;47128;47.530;8.584;2022-11-04T16:23:21;11.10;97.80
61255;DHT22;47128;47.530;8.584;2022-11-04T16:25:56;11.10;98.70
61255;DHT22;47128;47.530;8.584;2022-11-04T16:28:23;11.10;98.70
61255;DHT22;47128;47.530;8.584;2022-11-04T16:31:00;11.10;99.50
61255;DHT22;47128;47.530;8.584;2022-11-04T16:33:26;11.00;99.90
61255;DHT22;47128;47.530;8.584;2022-11-04T16:35:54;11.00;99.90
61255;DHT22;47128;47.530;8.584;2022-11-04T16:38:20;10.90;99.90
61255;DHT22;47128;47.530;8.584;2022-11-04T16:40:48;10.90;99.90
61255;DHT22;47128;47.530;8.584;2022-11-04T16:43:18;10.80;99.90
61255;DHT22;47128;47.530;8.584;2022-11-04T16:45:47;10.80;99.90
61255;DHT22;47128;47.530;8.584;2022-11-04T16:48:17;10.80;99.90
61255;DHT22;47128;47.530;8.584;2022-11-04T16:50:43;10.80;99.90
61255;DHT22;47128;47.530;8.584;2022-11-04T16:53:09;10.80;99.90
61255;DHT22;47128;47.530;8.584;2022-11-04T16:55:39;10.80;99.90
61255;DHT22;47128;47.530;8.584;2022-11-04T16:58:05;10.80;99.90
61255;DHT22;47128;47.530;8.584;2022-11-04T17:00:36;10.80;99.90
61255;DHT22;47128;47.530;8.584;2022-11-04T17:03:13;10.80;99.90
61255;DHT22;47128;47.530;8.584;2022-11-04T17:05:46;10.80;99.90
61255;DHT22;47128;47.530;8.584;2022-11-04T17:08:12;10.80;99.90
61255;DHT22;47128;47.530;8.584;2022-11-04T17:10:38;10.90;99.90
61255;DHT22;47128;47.530;8.584;2022-11-04T17:13:04;10.90;99.90
61255;DHT22;47128;47.530;8.584;2022-11-04T17:15:29;10.90;99.90
61255;DHT22;47128;47.530;8.584;2022-11-04T17:17:56;10.90;99.90
61255;DHT22;47128;47.530;8.584;2022-11-04T17:20:22;10.90;99.90
61255;DHT22;47128;47.530;8.584;2022-11-04T17:22:48;10.90;99.90
61255;DHT22;47128;47.530;8.584;2022-11-04T17:25:20;10.90;99.90
61255;DHT22;47128;47.530;8.584;2022-11-04T17:27:47;10.90;99.90
61255;DHT22;47128;47.530;8.584;2022-11-04T17:30:13;10.90;99.90
61255;DHT22;47128;47.530;8.584;2022-11-04T17:32:40;10.90;99.90
61255;DHT22;47128;47.530;8.584;2022-11-04T17:35:06;10.80;99.90
61255;DHT22;47128;47.530;8.584;2022-11-04T17:37:32;10.80;99.90
61255;DHT22;47128;47.530;8.584;2022-11-04T17:39:57;10.80;99.90
61255;DHT22;47128;47.530;8.584;2022-11-04T17:42:23;10.80;99.90
61255;DHT22;47128;47.530;8.584;2022-11-04T17:45:13;10.80;99.90
61255;DHT22;47128;47.530;8.584;2022-11-04T17:47:42;10.80;99.90
61255;DHT22;47128;47.530;8.584;2022-11-04T17:50:08;10.80;99.90
61255;DHT22;47128;47.530;8.584;2022-11-04T17:52:35;10.80;99.90
61255;DHT22;47128;47.530;8.584;2022-11-04T17:55:04;10.80;99.90
61255;DHT22;47128;47.530;8.584;2022-11-04T17:57:32;10.80;99.90
61255;DHT22;47128;47.530;8.584;2022-11-04T17:59:59;10.80;99.90
61255;DHT22;47128;47.530;8.584;2022-11-04T18:02:25;10.80;99.90
61255;DHT22;47128;47.530;8.584;2022-11-04T18:04:50;10.80;99.90
61255;DHT22;47128;47.530;8.584;2022-11-04T18:07:16;10.80;99.90
61255;DHT22;47128;47.530;8.584;2022-11-04T18:09:43;10.80;99.90
61255;DHT22;47128;47.530;8.584;2022-11-04T18:12:09;10.70;99.90
61255;DHT22;47128;47.530;8.584;2022-11-04T18:14:53;10.60;99.90
61255;DHT22;47128;47.530;8.584;2022-11-04T18:17:18;10.60;99.90
61255;DHT22;47128;47.530;8.584;2022-11-04T18:19:51;10.60;99.90
61255;DHT22;47128;47.530;8.584;2022-11-04T18:22:17;10.60;99.90
61255;DHT22;47128;47.530;8.584;2022-11-04T18:24:43;10.50;99.90
61255;DHT22;47128;47.530;8.584;2022-11-04T18:27:09;10.50;99.90
61255;DHT22;47128;47.530;8.584;2022-11-04T18:29:35;10.50;99.90
61255;DHT22;47128;47.530;8.584;2022-11-04T18:32:01;10.50;99.90
61255;DHT22;47128;47.530;8.584;2022-11-04T18:34:26;10.40;99.90
61255;DHT22;47128;47.530;8.584;2022-11-04T18:36:53;10.40;99.90